sensor_id;sensor_type;location;lat;lon;timestamp;pressure;altitude;pressure_sealevel;temperature;humidity
44001;BME280;29660;42.892;24.710;2023-11-22T00:00:56;96296.59;;;7.48;100.00
44001;BME280;29660;42.892;24.710;2023-11-22T00:06:18;96304.25;;;7.50;100.00
44001;BME280;29660;42.892;24.710;2023-11-22T00:11:43;96307.13;;;7.53;100.00
44001;BME280;29660;42.892;24.710;2023-11-22T00:17:06;96138.75;;;6.36;100.00
44001;BME280;29660;42.892;24.710;2023-11-22T00:22:28;96318.59;;;7.49;100.00
44001;BME280;29660;42.892;24.710;2023-11-22T00:27:54;96319.38;;;7.49;100.00
44001;BME280;29660;42.892;24.710;2023-11-22T00:33:17;96320.94;;;7.50;100.00
44001;BME280;29660;42.892;24.710;2023-11-22T00:38:42;96322.09;;;7.44;100.00
44001;BME280;29660;42.892;24.710;2023-11-22T00:44:04;96320.47;;;7.48;100.00
44001;BME280;29660;42.892;24.710;2023-11-22T00:49:28;96186.19;;;6.61;100.00
44001;BME280;29660;42.892;24.710;2023-11-22T00:54:50;96337.16;;;7.49;100.00
44001;BME280;29660;42.892;24.710;2023-11-22T01:00:12;96284.69;;;7.22;100.00
44001;BME280;29660;42.892;24.710;2023-11-22T01:05:37;96217.00;;;6.81;100.00
44001;BME280;29660;42.892;24.710;2023-11-22T01:10:59;96329.88;;;7.59;100.00
44001;BME280;29660;42.892;24.710;2023-11-22T01:16:22;96321.94;;;7.59;100.00
44001;BME280;29660;42.892;24.710;2023-11-22T01:21:44;96319.84;;;7.56;100.00
44001;BME280;29660;42.892;24.710;2023-11-22T01:27:06;96336.31;;;7.53;100.00
44001;BME280;29660;42.892;24.710;2023-11-22T01:32:29;96335.75;;;7.56;100.00
44001;BME280;29660;42.892;24.710;2023-11-22T01:37:51;96298.63;;;7.32;100.00
44001;BME280;29660;42.892;24.710;2023-11-22T01:43:17;96262.06;;;7.05;100.00
44001;BME280;29660;42.892;24.710;2023-11-22T01:48:40;96152.63;;;6.52;100.00
44001;BME280;29660;42.892;24.710;2023-11-22T01:54:02;96310.63;;;7.49;100.00
44001;BME280;29660;42.892;24.710;2023-11-22T01:59:29;96306.63;;;7.51;100.00
44001;BME280;29660;42.892;24.710;2023-11-22T02:04:53;95995.03;;;5.53;100.00
44001;BME280;29660;42.892;24.710;2023-11-22T02:10:15;96291.28;;;7.48;100.00
44001;BME280;29660;42.892;24.710;2023-11-22T02:15:38;96297.66;;;7.47;100.00
44001;BME280;29660;42.892;24.710;2023-11-22T02:21:00;96197.13;;;6.79;100.00
44001;BME280;29660;42.892;24.710;2023-11-22T02:26:22;96319.00;;;7.37;100.00
44001;BME280;29660;42.892;24.710;2023-11-22T02:31:45;96199.91;;;6.69;100.00
44001;BME280;29660;42.892;24.710;2023-11-22T02:37:07;96302.00;;;7.38;100.00
44001;BME280;29660;42.892;24.710;2023-11-22T02:42:30;96306.25;;;7.39;100.00
44001;BME280;29660;42.892;24.710;2023-11-22T02:47:52;96299.13;;;7.34;100.00
44001;BME280;29660;42.892;24.710;2023-11-22T02:53:15;96161.94;;;6.49;100.00
44001;BME280;29660;42.892;24.710;2023-11-22T02:58:37;96294.63;;;7.35;100.00
44001;BME280;29660;42.892;24.710;2023-11-22T03:03:59;96290.81;;;7.41;100.00
44001;BME280;29660;42.892;24.710;2023-11-22T03:09:22;96169.69;;;6.70;100.00
44001;BME280;29660;42.892;24.710;2023-11-22T03:14:45;96234.53;;;7.01;100.00
44001;BME280;29660;42.892;24.710;2023-11-22T03:20:08;96167.19;;;6.54;100.00
44001;BME280;29660;42.892;24.710;2023-11-22T03:25:33;96290.22;;;7.25;100.00
44001;BME280;29660;42.892;24.710;2023-11-22T03:30:55;96197.28;;;6.63;100.00
44001;BME280;29660;42.892;24.710;2023-11-22T03:36:17;96182.53;;;6.57;100.00
44001;BME280;29660;42.892;24.710;2023-11-22T03:41:40;96221.22;;;6.82;100.00
44001;BME280;29660;42.892;24.710;2023-11-22T03:47:04;95619.56;;;2.93;100.00
44001;BME280;29660;42.892;24.710;2023-11-22T03:52:26;96303.94;;;7.32;100.00
44001;BME280;29660;42.892;24.710;2023-11-22T03:57:51;96305.28;;;7.30;100.00
44001;BME280;29660;42.892;24.710;2023-11-22T04:03:13;96282.94;;;7.12;100.00
44001;BME280;29660;42.892;24.710;2023-11-22T04:08:35;96321.88;;;7.41;100.00
44001;BME280;29660;42.892;24.710;2023-11-22T04:13:58;96159.63;;;6.43;100.00
44001;BME280;29660;42.892;24.710;2023-11-22T04:19:20;96348.09;;;7.66;100.00
44001;BME280;29660;42.892;24.710;2023-11-22T04:24:43;96229.78;;;6.98;100.00
44001;BME280;29660;42.892;24.710;2023-11-22T04:30:09;96345.09;;;7.73;100.00
44001;BME280;29660;42.892;24.710;2023-11-22T04:35:35;96311.81;;;7.61;100.00
44001;BME280;29660;42.892;24.710;2023-11-22T04:40:59;96343.41;;;7.82;100.00
44001;BME280;29660;42.892;24.710;2023-11-22T04:46:21;96275.59;;;7.28;100.00
44001;BME280;29660;42.892;24.710;2023-11-22T04:51:43;96349.06;;;7.75;100.00
44001;BME280;29660;42.892;24.710;2023-11-22T04:57:07;96361.50;;;7.80;100.00
44001;BME280;29660;42.892;24.710;2023-11-22T05:02:29;96375.25;;;7.82;100.00
44001;BME280;29660;42.892;24.710;2023-11-22T05:07:52;96381.59;;;7.86;100.00
44001;BME280;29660;42.892;24.710;2023-11-22T05:13:14;96244.41;;;6.96;100.00
44001;BME280;29660;42.892;24.710;2023-11-22T05:18:36;96364.88;;;7.61;100.00
44001;BME280;29660;42.892;24.710;2023-11-22T05:23:58;96404.81;;;7.75;100.00
44001;BME280;29660;42.892;24.710;2023-11-22T05:29:21;96402.41;;;7.74;100.00
44001;BME280;29660;42.892;24.710;2023-11-22T05:34:43;96280.16;;;6.98;100.00
44001;BME280;29660;42.892;24.710;2023-11-22T05:40:06;96422.94;;;7.92;100.00
44001;BME280;29660;42.892;24.710;2023-11-22T05:45:31;96369.69;;;7.59;100.00
44001;BME280;29660;42.892;24.710;2023-11-22T05:50:53;96424.00;;;7.91;100.00
44001;BME280;29660;42.892;24.710;2023-11-22T05:56:15;96349.88;;;7.28;100.00
44001;BME280;29660;42.892;24.710;2023-11-22T06:01:38;96447.44;;;7.84;100.00
44001;BME280;29660;42.892;24.710;2023-11-22T06:07:01;96446.59;;;7.88;100.00
44001;BME280;29660;42.892;24.710;2023-11-22T06:12:23;96455.28;;;7.70;100.00
44001;BME280;29660;42.892;24.710;2023-11-22T06:17:45;96473.06;;;7.70;100.00
44001;BME280;29660;42.892;24.710;2023-11-22T06:23:08;96397.59;;;7.28;100.00
44001;BME280;29660;42.892;24.710;2023-11-22T06:28:30;96488.50;;;7.68;100.00
44001;BME280;29660;42.892;24.710;2023-11-22T06:33:52;96486.94;;;7.61;100.00
44001;BME280;29660;42.892;24.710;2023-11-22T06:39:14;96506.06;;;7.63;100.00
44001;BME280;29660;42.892;24.710;2023-11-22T06:44:36;96423.91;;;7.24;100.00
44001;BME280;29660;42.892;24.710;2023-11-22T06:49:59;96513.13;;;7.73;100.00
44001;BME280;29660;42.892;24.710;2023-11-22T06:55:21;96520.69;;;7.85;100.00
44001;BME280;29660;42.892;24.710;2023-11-22T07:00:44;96507.44;;;7.85;100.00
44001;BME280;29660;42.892;24.710;2023-11-22T07:06:07;96491.09;;;7.73;100.00
44001;BME280;29660;42.892;24.710;2023-11-22T07:11:30;96536.72;;;8.04;100.00
44001;BME280;29660;42.892;24.710;2023-11-22T07:16:52;96538.75;;;8.12;100.00
44001;BME280;29660;42.892;24.710;2023-11-22T07:22:15;96542.38;;;8.21;100.00
44001;BME280;29660;42.892;24.710;2023-11-22T07:27:39;96435.34;;;7.49;100.00
44001;BME280;29660;42.892;24.710;2023-11-22T07:33:01;96558.50;;;8.30;100.00
44001;BME280;29660;42.892;24.710;2023-11-22T07:49:13;96599.00;;;8.17;100.00
44001;BME280;29660;42.892;24.710;2023-11-22T07:54:38;96528.41;;;7.86;100.00
44001;BME280;29660;42.892;24.710;2023-11-22T08:00:00;96614.56;;;8.57;100.00
44001;BME280;29660;42.892;24.710;2023-11-22T08:05:32;96601.22;;;8.63;100.00
44001;BME280;29660;42.892;24.710;2023-11-22T08:10:58;96632.25;;;8.91;100.00
44001;BME280;29660;42.892;24.710;2023-11-22T08:16:20;96636.94;;;8.99;100.00
44001;BME280;29660;42.892;24.710;2023-11-22T08:21:42;96625.81;;;9.16;100.00
44001;BME280;29660;42.892;24.710;2023-11-22T08:27:04;96646.97;;;9.26;100.00
44001;BME280;29660;42.892;24.710;2023-11-22T08:32:29;96648.75;;;9.31;100.00
44001;BME280;29660;42.892;24.710;2023-11-22T08:37:53;96638.06;;;9.36;100.00
44001;BME280;29660;42.892;24.710;2023-11-22T08:43:15;96639.13;;;9.35;100.00
44001;BME280;29660;42.892;24.710;2023-11-22T08:48:38;96640.06;;;9.44;100.00
44001;BME280;29660;42.892;24.710;2023-11-22T08:54:02;96632.09;;;9.44;100.00
44001;BME280;29660;42.892;24.710;2023-11-22T08:59:24;96645.66;;;9.43;100.00
44001;BME280;29660;42.892;24.710;2023-11-22T09:04:46;96671.06;;;9.35;100.00
44001;BME280;29660;42.892;24.710;2023-11-22T09:10:09;96660.50;;;9.30;100.00
44001;BME280;29660;42.892;24.710;2023-11-22T09:15:33;96655.25;;;9.25;100.00
44001;BME280;29660;42.892;24.710;2023-11-22T09:20:57;96660.00;;;9.28;100.00
44001;BME280;29660;42.892;24.710;2023-11-22T09:26:19;96667.97;;;9.28;100.00
44001;BME280;29660;42.892;24.710;2023-11-22T09:31:41;96554.06;;;8.49;100.00
44001;BME280;29660;42.892;24.710;2023-11-22T09:37:14;96661.50;;;9.34;100.00
44001;BME280;29660;42.892;24.710;2023-11-22T09:42:36;96591.34;;;8.87;100.00
44001;BME280;29660;42.892;24.710;2023-11-22T09:47:59;96671.78;;;9.22;100.00
44001;BME280;29660;42.892;24.710;2023-11-22T09:53:32;96683.56;;;9.34;100.00
44001;BME280;29660;42.892;24.710;2023-11-22T09:58:58;96687.66;;;9.27;100.00
44001;BME280;29660;42.892;24.710;2023-11-22T10:04:22;96586.16;;;8.77;100.00
44001;BME280;29660;42.892;24.710;2023-11-22T10:09:46;96573.50;;;8.69;100.00
44001;BME280;29660;42.892;24.710;2023-11-22T10:15:16;96681.81;;;9.49;100.00
44001;BME280;29660;42.892;24.710;2023-11-22T10:20:41;96703.84;;;9.30;100.00
44001;BME280;29660;42.892;24.710;2023-11-22T10:26:04;96693.81;;;9.46;100.00
44001;BME280;29660;42.892;24.710;2023-11-22T10:31:29;96655.25;;;9.44;100.00
44001;BME280;29660;42.892;24.710;2023-11-22T10:36:51;96695.13;;;9.68;100.00
44001;BME280;29660;42.892;24.710;2023-11-22T10:42:16;96691.25;;;9.79;100.00
44001;BME280;29660;42.892;24.710;2023-11-22T10:47:39;96668.50;;;9.68;100.00
44001;BME280;29660;42.892;24.710;2023-11-22T10:53:06;96700.22;;;9.83;100.00
44001;BME280;29660;42.892;24.710;2023-11-22T10:58:32;96691.66;;;9.86;100.00
44001;BME280;29660;42.892;24.710;2023-11-22T11:04:09;96684.22;;;10.02;100.00
44001;BME280;29660;42.892;24.710;2023-11-22T11:09:34;96689.63;;;9.97;100.00
44001;BME280;29660;42.892;24.710;2023-11-22T11:14:58;96695.25;;;9.95;100.00
44001;BME280;29660;42.892;24.710;2023-11-22T11:20:22;96659.00;;;9.62;100.00
44001;BME280;29660;42.892;24.710;2023-11-22T11:25:56;96690.63;;;9.82;100.00
44001;BME280;29660;42.892;24.710;2023-11-22T11:31:21;96704.53;;;9.98;100.00
44001;BME280;29660;42.892;24.710;2023-11-22T11:36:52;96714.81;;;10.04;100.00
44001;BME280;29660;42.892;24.710;2023-11-22T11:42:16;96596.63;;;9.49;100.00
44001;BME280;29660;42.892;24.710;2023-11-22T11:47:41;96696.59;;;10.12;100.00
44001;BME280;29660;42.892;24.710;2023-11-22T11:53:05;96710.91;;;10.16;100.00
44001;BME280;29660;42.892;24.710;2023-11-22T11:58:27;96718.25;;;10.24;100.00
44001;BME280;29660;42.892;24.710;2023-11-22T12:03:51;96733.25;;;10.20;100.00
44001;BME280;29660;42.892;24.710;2023-11-22T12:09:14;96725.69;;;10.27;100.00
44001;BME280;29660;42.892;24.710;2023-11-22T12:14:37;96705.22;;;10.22;100.00
44001;BME280;29660;42.892;24.710;2023-11-22T12:20:12;96725.47;;;10.42;100.00
44001;BME280;29660;42.892;24.710;2023-11-22T12:25:36;96732.59;;;10.61;100.00
44001;BME280;29660;42.892;24.710;2023-11-22T12:31:11;96569.56;;;9.42;100.00
44001;BME280;29660;42.892;24.710;2023-11-22T12:36:34;96622.47;;;9.81;100.00
44001;BME280;29660;42.892;24.710;2023-11-22T12:41:58;96750.81;;;10.72;100.00
44001;BME280;29660;42.892;24.710;2023-11-22T12:47:34;96656.25;;;10.18;100.00
44001;BME280;29660;42.892;24.710;2023-11-22T12:53:18;96754.75;;;10.61;100.00
44001;BME280;29660;42.892;24.710;2023-11-22T12:58:43;96692.63;;;10.28;100.00
44001;BME280;29660;42.892;24.710;2023-11-22T13:04:05;96768.69;;;10.72;100.00
44001;BME280;29660;42.892;24.710;2023-11-22T13:09:28;96773.53;;;10.70;100.00
44001;BME280;29660;42.892;24.710;2023-11-22T13:14:52;96775.91;;;10.39;100.00
44001;BME280;29660;42.892;24.710;2023-11-22T13:20:14;96781.59;;;10.32;100.00
44001;BME280;29660;42.892;24.710;2023-11-22T13:25:37;96705.41;;;9.93;100.00
44001;BME280;29660;42.892;24.710;2023-11-22T13:31:00;96798.44;;;10.46;100.00
44001;BME280;29660;42.892;24.710;2023-11-22T13:36:22;96804.72;;;10.37;100.00
44001;BME280;29660;42.892;24.710;2023-11-22T13:41:45;96820.00;;;10.31;100.00
44001;BME280;29660;42.892;24.710;2023-11-22T13:47:08;96761.06;;;9.76;100.00
44001;BME280;29660;42.892;24.710;2023-11-22T13:52:30;96843.25;;;10.25;100.00
44001;BME280;29660;42.892;24.710;2023-11-22T13:57:57;96243.25;;;6.20;100.00
44001;BME280;29660;42.892;24.710;2023-11-22T14:03:19;96825.84;;;9.90;100.00
44001;BME280;29660;42.892;24.710;2023-11-22T14:08:41;96846.09;;;9.91;100.00
44001;BME280;29660;42.892;24.710;2023-11-22T14:14:04;96742.66;;;9.13;100.00
44001;BME280;29660;42.892;24.710;2023-11-22T14:19:26;96857.59;;;9.87;100.00
44001;BME280;29660;42.892;24.710;2023-11-22T14:24:50;96864.50;;;9.88;100.00
44001;BME280;29660;42.892;24.710;2023-11-22T14:30:13;96872.84;;;9.81;100.00
44001;BME280;29660;42.892;24.710;2023-11-22T14:35:36;96876.28;;;9.81;100.00
44001;BME280;29660;42.892;24.710;2023-11-22T14:40:59;96879.25;;;9.80;100.00
44001;BME280;29660;42.892;24.710;2023-11-22T14:46:21;96769.91;;;8.99;100.00
44001;BME280;29660;42.892;24.710;2023-11-22T14:51:43;96890.63;;;9.62;100.00
44001;BME280;29660;42.892;24.710;2023-11-22T14:57:06;96897.09;;;9.55;100.00
44001;BME280;29660;42.892;24.710;2023-11-22T15:02:30;96898.16;;;9.54;100.00
44001;BME280;29660;42.892;24.710;2023-11-22T15:07:53;96845.94;;;9.05;100.00
44001;BME280;29660;42.892;24.710;2023-11-22T15:13:18;96862.63;;;9.11;100.00
44001;BME280;29660;42.892;24.710;2023-11-22T15:18:40;96812.22;;;8.67;100.00
44001;BME280;29660;42.892;24.710;2023-11-22T15:24:02;96941.97;;;9.38;100.00
44001;BME280;29660;42.892;24.710;2023-11-22T15:29:25;96951.09;;;9.27;100.00
44001;BME280;29660;42.892;24.710;2023-11-22T15:34:47;96960.13;;;9.31;100.00
44001;BME280;29660;42.892;24.710;2023-11-22T15:40:10;96983.56;;;9.29;100.00
44001;BME280;29660;42.892;24.710;2023-11-22T15:45:33;96986.28;;;9.19;100.00
44001;BME280;29660;42.892;24.710;2023-11-22T15:50:55;96994.84;;;9.16;100.00
44001;BME280;29660;42.892;24.710;2023-11-22T15:56:17;96916.28;;;8.50;100.00
44001;BME280;29660;42.892;24.710;2023-11-22T16:01:40;96974.91;;;8.74;100.00
44001;BME280;29660;42.892;24.710;2023-11-22T16:07:04;97027.13;;;9.04;100.00
44001;BME280;29660;42.892;24.710;2023-11-22T16:12:26;97025.25;;;8.99;100.00
44001;BME280;29660;42.892;24.710;2023-11-22T16:17:48;97035.94;;;8.94;100.00
44001;BME280;29660;42.892;24.710;2023-11-22T16:23:11;97029.84;;;8.94;100.00
44001;BME280;29660;42.892;24.710;2023-11-22T16:28:35;97031.78;;;8.78;100.00
44001;BME280;29660;42.892;24.710;2023-11-22T16:33:59;96972.97;;;8.25;100.00
44001;BME280;29660;42.892;24.710;2023-11-22T16:39:21;97076.94;;;8.83;100.00
44001;BME280;29660;42.892;24.710;2023-11-22T16:44:48;97092.13;;;8.82;100.00
44001;BME280;29660;42.892;24.710;2023-11-22T16:50:10;97091.88;;;8.79;100.00
44001;BME280;29660;42.892;24.710;2023-11-22T16:55:33;97081.56;;;8.62;100.00
44001;BME280;29660;42.892;24.710;2023-11-22T17:00:56;97102.78;;;8.77;100.00
44001;BME280;29660;42.892;24.710;2023-11-22T17:06:19;97116.88;;;8.78;100.00
44001;BME280;29660;42.892;24.710;2023-11-22T17:11:41;97123.78;;;8.79;100.00
44001;BME280;29660;42.892;24.710;2023-11-22T17:17:05;97132.53;;;8.79;100.00
44001;BME280;29660;42.892;24.710;2023-11-22T17:22:27;97132.28;;;8.76;100.00
44001;BME280;29660;42.892;24.710;2023-11-22T17:27:50;97109.53;;;8.44;100.00
44001;BME280;29660;42.892;24.710;2023-11-22T17:33:15;97159.94;;;8.80;100.00
44001;BME280;29660;42.892;24.710;2023-11-22T17:38:38;97033.63;;;8.02;100.00
44001;BME280;29660;42.892;24.710;2023-11-22T17:44:00;97169.25;;;8.72;100.00
44001;BME280;29660;42.892;24.710;2023-11-22T17:49:22;97102.09;;;8.21;100.00
44001;BME280;29660;42.892;24.710;2023-11-22T17:54:45;97170.91;;;8.53;100.00
44001;BME280;29660;42.892;24.710;2023-11-22T18:00:08;97198.00;;;8.60;100.00
44001;BME280;29660;42.892;24.710;2023-11-22T18:05:34;97206.00;;;8.55;100.00
44001;BME280;29660;42.892;24.710;2023-11-22T18:10:56;97220.59;;;8.52;100.00
44001;BME280;29660;42.892;24.710;2023-11-22T18:16:19;97223.53;;;8.51;100.00
44001;BME280;29660;42.892;24.710;2023-11-22T18:21:43;97230.47;;;8.57;100.00
44001;BME280;29660;42.892;24.710;2023-11-22T18:27:06;97192.44;;;8.31;100.00
44001;BME280;29660;42.892;24.710;2023-11-22T18:32:28;97186.84;;;8.32;100.00
44001;BME280;29660;42.892;24.710;2023-11-22T18:37:51;96901.81;;;6.50;100.00
44001;BME280;29660;42.892;24.710;2023-11-22T18:43:13;97247.97;;;8.73;100.00
44001;BME280;29660;42.892;24.710;2023-11-22T18:48:36;97248.75;;;8.89;100.00
44001;BME280;29660;42.892;24.710;2023-11-22T18:53:58;97251.91;;;8.91;100.00
44001;BME280;29660;42.892;24.710;2023-11-22T18:59:21;97267.28;;;9.15;100.00
44001;BME280;29660;42.892;24.710;2023-11-22T19:04:45;97192.41;;;8.67;100.00
44001;BME280;29660;42.892;24.710;2023-11-22T19:10:10;97268.66;;;9.12;100.00
44001;BME280;29660;42.892;24.710;2023-11-22T19:15:45;97231.47;;;8.81;100.00
44001;BME280;29660;42.892;24.710;2023-11-22T19:21:07;97271.03;;;9.14;100.00
44001;BME280;29660;42.892;24.710;2023-11-22T19:26:31;97322.63;;;9.18;100.00
44001;BME280;29660;42.892;24.710;2023-11-22T19:31:55;97275.81;;;9.12;100.00
44001;BME280;29660;42.892;24.710;2023-11-22T19:37:17;96967.34;;;7.05;100.00
44001;BME280;29660;42.892;24.710;2023-11-22T19:42:40;97276.94;;;8.80;100.00
44001;BME280;29660;42.892;24.710;2023-11-22T19:48:02;97296.09;;;8.92;100.00
44001;BME280;29660;42.892;24.710;2023-11-22T19:53:25;97278.28;;;8.72;100.00
44001;BME280;29660;42.892;24.710;2023-11-22T19:58:48;97313.63;;;8.93;100.00
44001;BME280;29660;42.892;24.710;2023-11-22T20:04:10;97297.94;;;8.87;100.00
44001;BME280;29660;42.892;24.710;2023-11-22T20:09:36;97317.34;;;8.97;100.00
44001;BME280;29660;42.892;24.710;2023-11-22T20:14:59;97323.75;;;9.01;100.00
44001;BME280;29660;42.892;24.710;2023-11-22T20:20:21;97268.44;;;8.52;100.00
44001;BME280;29660;42.892;24.710;2023-11-22T20:25:45;97326.66;;;8.79;100.00
44001;BME280;29660;42.892;24.710;2023-11-22T20:31:11;97227.75;;;8.16;100.00
44001;BME280;29660;42.892;24.710;2023-11-22T20:36:33;97333.84;;;8.79;100.00
44001;BME280;29660;42.892;24.710;2023-11-22T20:41:59;97326.94;;;8.68;100.00
44001;BME280;29660;42.892;24.710;2023-11-22T20:47:21;97353.28;;;8.74;100.00
44001;BME280;29660;42.892;24.710;2023-11-22T20:52:43;97354.59;;;8.72;100.00
44001;BME280;29660;42.892;24.710;2023-11-22T20:58:06;97381.72;;;8.64;100.00
44001;BME280;29660;42.892;24.710;2023-11-22T21:03:28;97376.13;;;8.55;100.00
44001;BME280;29660;42.892;24.710;2023-11-22T21:08:50;97369.97;;;8.39;100.00
44001;BME280;29660;42.892;24.710;2023-11-22T21:14:12;97335.06;;;8.05;100.00
44001;BME280;29660;42.892;24.710;2023-11-22T21:19:34;97395.50;;;8.40;100.00
44001;BME280;29660;42.892;24.710;2023-11-22T21:24:56;97387.00;;;8.38;100.00
44001;BME280;29660;42.892;24.710;2023-11-22T21:30:19;97199.63;;;7.06;100.00
44001;BME280;29660;42.892;24.710;2023-11-22T21:35:41;97400.75;;;8.30;100.00
44001;BME280;29660;42.892;24.710;2023-11-22T21:41:03;97407.34;;;8.17;100.00
44001;BME280;29660;42.892;24.710;2023-11-22T21:46:26;97408.41;;;8.11;100.00
44001;BME280;29660;42.892;24.710;2023-11-22T21:51:48;97404.09;;;8.00;100.00
44001;BME280;29660;42.892;24.710;2023-11-22T21:57:11;97407.34;;;8.12;100.00
44001;BME280;29660;42.892;24.710;2023-11-22T22:02:33;97354.88;;;7.77;100.00
44001;BME280;29660;42.892;24.710;2023-11-22T22:07:56;97337.31;;;7.66;100.00
44001;BME280;29660;42.892;24.710;2023-11-22T22:13:18;97423.03;;;8.14;100.00
44001;BME280;29660;42.892;24.710;2023-11-22T22:18:41;97418.41;;;7.88;100.00
44001;BME280;29660;42.892;24.710;2023-11-22T22:24:04;97422.69;;;8.00;100.00
44001;BME280;29660;42.892;24.710;2023-11-22T22:29:27;97403.75;;;7.81;100.00
44001;BME280;29660;42.892;24.710;2023-11-22T22:34:50;97372.59;;;7.56;100.00
44001;BME280;29660;42.892;24.710;2023-11-22T22:40:12;97426.91;;;7.91;100.00
44001;BME280;29660;42.892;24.710;2023-11-22T22:45:35;97423.34;;;7.70;100.00
44001;BME280;29660;42.892;24.710;2023-11-22T22:50:57;97262.56;;;6.74;100.00
44001;BME280;29660;42.892;24.710;2023-11-22T22:56:19;97409.47;;;7.57;100.00
44001;BME280;29660;42.892;24.710;2023-11-22T23:01:46;97436.56;;;7.59;100.00
44001;BME280;29660;42.892;24.710;2023-11-22T23:07:12;97407.19;;;7.29;100.00
44001;BME280;29660;42.892;24.710;2023-11-22T23:12:40;97426.88;;;7.38;100.00
44001;BME280;29660;42.892;24.710;2023-11-22T23:18:03;97450.56;;;7.50;100.00
44001;BME280;29660;42.892;24.710;2023-11-22T23:23:28;97446.59;;;7.47;100.00
44001;BME280;29660;42.892;24.710;2023-11-22T23:28:50;97047.69;;;4.94;100.00
44001;BME280;29660;42.892;24.710;2023-11-22T23:34:12;97446.00;;;7.40;100.00
44001;BME280;29660;42.892;24.710;2023-11-22T23:39:34;97464.06;;;7.43;100.00
44001;BME280;29660;42.892;24.710;2023-11-22T23:44:56;97457.75;;;7.54;100.00
44001;BME280;29660;42.892;24.710;2023-11-22T23:50:18;97470.56;;;7.25;100.00
44001;BME280;29660;42.892;24.710;2023-11-22T23:55:41;97468.94;;;7.56;100.00
